Time;durP1;ratioP1;P1;durP2;ratioP2;P2;SDS_P1;SDS_P2;PMS_P1;PMS_P2;Temp;Humidity;BMP_temperature;BMP_pressure;BME280_temperature;BME280_humidity;BME280_pressure;Samples;Min_cycle;Max_cycle;Signal;HPM_P1;HPM_P2
2021/07/13 00:00:20;;;;;;;6.07;3.58;;;15.10;99.90;;;14.89;96.59;101120.53;4185285;28;20040;-72
2021/07/13 00:02:21;;;;;;;6.57;2.90;;;15.10;99.90;;;14.82;97.08;101127.53;4184955;28;20067;-72
2021/07/13 00:04:22;;;;;;;5.03;3.10;;;15.10;99.90;;;14.80;96.93;101125.06;4185058;28;20032;-72
2021/07/13 00:06:24;;;;;;;6.88;2.92;;;15.10;99.90;;;14.85;97.23;101130.69;4186105;28;20392;-72
2021/07/13 00:08:25;;;;;;;5.20;3.22;;;15.10;99.90;;;14.89;96.64;101126.69;4186142;28;20033;-72
2021/07/13 00:10:30;;;;;;;6.18;2.55;;;15.10;99.90;;;14.88;96.94;101124.19;4185110;28;20025;-72
2021/07/13 00:12:31;;;;;;;4.93;2.47;;;15.20;99.90;;;14.99;96.65;101129.13;4201334;28;20598;-72
2021/07/13 00:14:32;;;;;;;5.25;2.20;;;15.20;99.90;;;15.01;96.27;101128.94;4184589;28;20021;-72
2021/07/13 00:16:33;;;;;;;4.70;2.28;;;15.30;99.90;;;14.91;96.48;101124.66;4184412;28;20032;-72
2021/07/13 00:18:34;;;;;;;4.20;2.90;;;15.30;99.90;;;14.95;96.22;101127.81;4185967;28;20060;-72
2021/07/13 00:20:36;;;;;;;5.82;2.40;;;15.30;99.90;;;15.01;96.22;101137.75;4185946;28;20485;-72
2021/07/13 00:22:37;;;;;;;3.22;2.53;;;15.30;99.90;;;15.02;95.77;101128.78;4185715;28;20116;-72
2021/07/13 00:24:38;;;;;;;3.75;2.30;;;15.40;99.90;;;15.12;94.65;101132.03;4184466;28;20025;-72
2021/07/13 00:26:39;;;;;;;4.18;2.45;;;15.40;99.90;;;15.23;94.03;101142.22;4185873;28;20032;-72
2021/07/13 00:28:39;;;;;;;3.45;2.58;;;15.50;99.90;;;15.27;93.91;101130.25;4184482;28;20032;-72
2021/07/13 00:30:41;;;;;;;3.38;2.50;;;15.50;99.90;;;15.15;94.57;101126.34;4184130;28;20031;-72
2021/07/13 00:32:42;;;;;;;5.65;2.40;;;15.50;99.90;;;15.26;94.68;101131.25;4184639;28;20064;-72
2021/07/13 00:34:43;;;;;;;8.77;2.85;;;15.50;99.90;;;15.22;93.26;101123.81;4184474;28;20082;-72
2021/07/13 00:36:44;;;;;;;8.38;3.00;;;15.60;99.90;;;15.18;93.68;101125.16;4185642;28;20492;-72
2021/07/13 00:38:44;;;;;;;5.28;2.60;;;15.60;99.90;;;15.13;94.21;101125.72;4184346;28;20054;-72
2021/07/13 00:40:45;;;;;;;11.88;3.45;;;15.60;99.90;;;15.07;94.52;101122.91;4182509;28;20060;-72
2021/07/13 00:42:49;;;;;;;4.25;2.42;;;15.60;99.90;;;15.23;93.93;101133.47;4202105;28;20044;-72
2021/07/13 00:44:50;;;;;;;4.72;2.60;;;15.60;99.90;;;15.19;94.05;101135.63;4184283;28;20099;-72
2021/07/13 00:46:51;;;;;;;5.50;2.88;;;15.60;99.90;;;15.18;94.71;101131.31;4183871;28;20021;-72
2021/07/13 00:48:52;;;;;;;3.70;2.55;;;15.60;99.90;;;15.10;94.58;101133.19;4202070;28;20483;-72
2021/07/13 00:50:53;;;;;;;6.68;2.50;;;15.60;99.90;;;15.13;94.27;101124.88;4201980;28;20105;-72
2021/07/13 00:52:58;;;;;;;3.25;2.70;;;15.50;99.90;;;15.12;94.01;101110.75;4183994;28;20033;-72
2021/07/13 00:55:01;;;;;;;4.55;2.33;;;15.60;99.90;;;15.14;95.02;101118.56;4201737;28;20082;-72
2021/07/13 00:57:12;;;;;;;5.03;2.40;;;15.60;99.90;;;15.11;94.94;101109.13;4184085;28;20030;-72
2021/07/13 00:59:13;;;;;;;4.47;2.90;;;15.60;99.90;;;15.13;95.22;101104.44;4184451;28;20055;-72
2021/07/13 01:01:14;;;;;;;3.80;2.47;;;15.50;99.90;;;15.27;94.54;101109.00;4201562;28;20141;-72
2021/07/13 01:03:15;;;;;;;5.78;2.65;;;15.60;99.90;;;15.17;94.68;101107.59;4183931;28;20033;-72
2021/07/13 01:05:22;;;;;;;4.82;3.13;;;15.50;99.90;;;15.20;94.87;101109.91;4184072;28;20112;-72
2021/07/13 01:07:42;;;;;;;6.55;2.58;;;15.60;99.90;;;15.31;94.71;101114.78;4167466;28;20489;-72
2021/07/13 01:10:08;;;;;;;4.40;2.47;;;15.50;99.90;;;15.29;94.32;101120.25;4201736;28;20028;-72
2021/07/13 01:12:35;;;;;;;3.10;2.53;;;15.60;99.90;;;15.22;94.65;101116.69;4184583;28;20076;-72
2021/07/13 01:15:05;;;;;;;4.20;2.33;;;15.60;99.90;;;15.21;95.39;101117.69;4201515;28;20541;-72
2021/07/13 01:17:15;;;;;;;3.95;2.33;;;15.60;99.90;;;15.25;95.13;101113.66;4182013;28;20044;-72
2021/07/13 01:19:33;;;;;;;3.75;2.92;;;15.60;99.90;;;15.24;94.48;101114.66;4183910;28;20571;-72
2021/07/13 01:21:57;;;;;;;2.85;2.17;;;15.60;99.90;;;15.10;95.12;101111.94;4201239;28;20070;-72
2021/07/13 01:24:46;;;;;;;4.30;2.38;;;15.60;99.90;;;15.24;94.99;101119.97;4201482;28;20035;-72
2021/07/13 01:27:21;;;;;;;3.45;2.47;;;15.60;99.90;;;15.17;94.33;101115.56;4193843;28;20040;-72
2021/07/13 01:29:24;;;;;;;4.15;2.25;;;15.60;99.90;;;15.16;95.23;101122.69;4201655;28;20032;-72
2021/07/13 01:31:27;;;;;;;5.28;2.55;;;15.60;99.90;;;15.29;94.12;101112.28;4183638;28;20427;-72
2021/07/13 01:33:30;;;;;;;5.40;2.33;;;15.60;99.90;;;15.12;94.63;101115.25;4183731;28;20028;-72
2021/07/13 01:35:58;;;;;;;4.25;2.80;;;15.50;99.90;;;15.25;93.91;101112.84;4183602;28;20027;-72
2021/07/13 01:38:02;;;;;;;7.72;3.10;;;15.60;99.90;;;15.37;94.14;101122.88;4184499;28;20021;-72
2021/07/13 01:40:07;;;;;;;6.65;3.45;;;15.60;99.90;;;15.28;94.92;101112.47;4183504;28;20045;-72
2021/07/13 01:42:10;;;;;;;5.13;3.03;;;15.70;99.90;;;15.34;95.11;101115.25;4166121;28;20033;-72
2021/07/13 01:44:12;;;;;;;6.55;2.75;;;15.60;99.90;;;15.26;95.14;101117.97;4183723;28;20021;-72
2021/07/13 01:46:15;;;;;;;4.07;2.97;;;15.60;99.90;;;15.28;95.29;101113.31;4166725;28;20025;-72
2021/07/13 01:48:16;;;;;;;6.00;2.70;;;15.60;99.90;;;15.32;94.60;101117.25;4183837;28;20500;-73
2021/07/13 01:50:18;;;;;;;6.03;2.67;;;15.60;99.90;;;15.19;95.60;101122.34;4167060;28;20085;-72
2021/07/13 01:52:19;;;;;;;5.38;3.00;;;15.60;99.90;;;15.16;96.63;101116.56;4183514;28;20538;-72
2021/07/13 01:54:24;;;;;;;7.72;2.88;;;15.60;99.90;;;15.24;96.35;101119.16;4183553;28;20154;-72
2021/07/13 01:56:25;;;;;;;6.03;2.78;;;15.60;99.90;;;15.09;96.64;101118.25;4183801;28;20021;-72
2021/07/13 01:58:28;;;;;;;3.60;2.50;;;15.50;99.90;;;15.22;95.38;101122.00;4183553;28;20484;-72
2021/07/13 02:00:32;;;;;;;4.72;2.70;;;15.60;99.90;;;15.06;96.50;101118.59;4167031;28;20125;-72
2021/07/13 02:02:34;;;;;;;6.00;2.80;;;15.50;99.90;;;15.02;97.06;101125.28;4183165;28;20037;-72
2021/07/13 02:04:36;;;;;;;7.00;2.83;;;15.50;99.90;;;15.14;95.83;101113.25;4183425;28;20366;-72
2021/07/13 02:06:41;;;;;;;6.82;3.20;;;15.50;99.90;;;15.16;95.74;101112.06;4183696;28;20610;-72
2021/07/13 02:08:42;;;;;;;;;;;15.50;99.90;;;15.18;96.77;101115.38;4184120;28;20547;-72
2021/07/13 02:10:43;;;;;;;6.97;3.60;;;15.50;99.90;;;15.18;96.65;101114.53;4183423;28;19932;-72
2021/07/13 02:12:44;;;;;;;6.00;2.90;;;15.50;99.90;;;14.90;97.54;101106.28;4199873;28;20119;-72
2021/07/13 02:14:45;;;;;;;5.28;3.10;;;15.40;99.90;;;14.96;98.17;101116.19;4201334;28;20024;-72
2021/07/13 02:16:48;;;;;;;4.25;2.70;;;15.50;99.90;;;14.98;98.48;101119.50;4200914;28;20028;-72
2021/07/13 02:18:50;;;;;;;5.35;2.92;;;15.40;99.90;;;15.07;98.46;101112.28;4183414;28;20029;-72
2021/07/13 02:20:51;;;;;;;3.45;2.85;;;15.40;99.90;;;15.12;97.68;101109.94;4201023;28;20028;-72
2021/07/13 02:22:52;;;;;;;6.80;2.90;;;15.50;99.90;;;15.12;98.12;101109.94;4166849;28;20017;-72
2021/07/13 02:24:54;;;;;;;3.25;2.78;;;15.40;99.90;;;15.10;97.44;101107.47;4200866;28;20037;-72
2021/07/13 02:27:03;;;;;;;4.93;2.65;;;15.50;99.90;;;15.01;98.28;101103.19;4183293;28;20021;-72
2021/07/13 02:29:22;;;;;;;5.05;3.17;;;15.40;99.90;;;15.04;97.92;101105.50;4183450;28;20029;-72
2021/07/13 02:31:48;;;;;;;7.22;2.85;;;15.40;99.90;;;14.98;98.06;101106.22;4183747;28;20022;-72
2021/07/13 02:34:08;;;;;;;5.18;3.03;;;15.40;99.90;;;15.03;97.19;101111.81;4186236;28;20025;-72
2021/07/13 02:36:17;;;;;;;4.55;3.22;;;15.40;99.90;;;15.08;98.11;101109.47;4186577;28;20036;-72
2021/07/13 02:38:20;;;;;;;4.93;2.97;;;15.40;99.90;;;14.97;98.80;101096.56;4186257;28;20035;-72
2021/07/13 02:40:21;;;;;;;3.28;2.95;;;15.40;99.90;;;15.04;98.86;101100.19;4203901;28;20045;-72
2021/07/13 02:42:24;;;;;;;5.68;3.10;;;15.40;99.90;;;15.03;99.14;101095.88;4186437;28;20035;-72
2021/07/13 02:44:29;;;;;;;6.30;2.65;;;15.40;99.90;;;14.95;99.41;101106.56;4186188;28;20048;-72
2021/07/13 02:46:40;;;;;;;6.45;3.20;;;15.40;99.90;;;14.98;98.59;101102.72;4186213;28;20112;-72
2021/07/13 02:48:42;;;;;;;7.78;3.30;;;15.40;99.90;;;14.91;98.97;101103.41;4187082;28;20128;-72
2021/07/13 02:50:44;;;;;;;7.03;3.45;;;15.40;99.90;;;14.87;99.26;101107.41;4186262;28;20029;-72
2021/07/13 02:52:47;;;;;;;4.45;3.25;;;15.30;99.90;;;14.91;99.58;101102.59;4204125;28;20017;-72
2021/07/13 02:54:56;;;;;;;5.32;3.15;;;15.40;99.90;;;14.93;99.10;101100.59;4186212;28;20084;-72
2021/07/13 02:57:00;;;;;;;6.00;3.53;;;15.30;99.90;;;14.99;99.17;101105.22;4186424;28;20403;-72
2021/07/13 02:59:03;;;;;;;7.30;3.45;;;15.30;99.90;;;15.04;98.81;101102.84;4203865;28;20035;-72
2021/07/13 03:01:07;;;;;;;9.13;3.80;;;15.40;99.90;;;14.91;99.31;101099.94;4185842;28;20025;-72
2021/07/13 03:03:09;;;;;;;6.13;3.55;;;15.30;99.90;;;14.98;99.19;101100.06;4185894;28;20071;-72
2021/07/13 03:05:15;;;;;;;6.97;3.50;;;15.40;99.90;;;15.02;98.54;101094.25;4186003;28;20039;-72
2021/07/13 03:07:18;;;;;;;5.93;3.63;;;15.40;99.90;;;14.93;99.42;101095.28;4186011;28;20039;-72
2021/07/13 03:09:20;;;;;;;6.80;3.87;;;15.40;99.90;;;14.95;99.43;101087.97;4185933;28;20029;-72
2021/07/13 03:11:21;;;;;;;8.93;4.28;;;15.30;99.90;;;14.87;99.86;101093.34;4169365;28;20032;-72
2021/07/13 03:13:24;;;;;;;7.13;3.92;;;15.30;99.90;;;14.85;100.00;101092.66;4169334;28;20037;-72
2021/07/13 03:15:29;;;;;;;7.40;3.58;;;15.40;99.90;;;14.75;100.00;101097.38;4203460;28;20105;-72
2021/07/13 03:17:31;;;;;;;5.80;4.47;;;15.30;99.90;;;14.75;100.00;101086.78;4185726;28;20168;-72
2021/07/13 03:19:32;;;;;;;7.90;4.18;;;15.30;99.90;;;14.80;100.00;101081.75;4185847;28;20025;-72
2021/07/13 03:21:37;;;;;;;7.65;3.80;;;15.20;99.90;;;14.87;100.00;101090.69;4203442;28;20036;-72
2021/07/13 03:23:40;;;;;;;5.82;3.63;;;15.30;99.90;;;14.82;100.00;101082.38;4185907;28;20028;-72
2021/07/13 03:25:42;;;;;;;5.95;4.15;;;15.30;99.90;;;14.84;100.00;101080.41;4185564;28;20029;-72
2021/07/13 03:27:45;;;;;;;10.40;4.35;;;15.30;99.90;;;14.91;100.00;101089.31;4203459;28;20075;-72
2021/07/13 03:29:48;;;;;;;7.25;4.55;;;15.30;99.90;;;14.90;100.00;101085.81;4168917;28;20064;-72
2021/07/13 03:31:50;;;;;;;5.85;4.47;;;15.30;99.90;;;14.95;100.00;101090.63;4185507;28;20040;-72
2021/07/13 03:33:51;;;;;;;8.68;4.50;;;15.30;99.90;;;14.87;100.00;101088.81;4185372;28;20090;-72
2021/07/13 03:35:55;;;;;;;5.63;4.32;;;15.40;99.90;;;14.79;100.00;101088.06;4185638;28;20527;-73
2021/07/13 03:37:57;;;;;;;6.53;4.22;;;15.30;99.90;;;14.75;100.00;101081.44;4185513;28;20506;-72
2021/07/13 03:39:59;;;;;;;7.30;4.60;;;15.30;99.90;;;14.79;100.00;101082.75;4185148;28;20079;-72
2021/07/13 03:42:01;;;;;;;5.35;4.38;;;15.30;99.90;;;14.89;100.00;101078.03;4183290;28;20397;-72
2021/07/13 03:44:04;;;;;;;5.90;4.53;;;15.30;99.90;;;14.95;100.00;101077.34;4185174;28;20025;-72
2021/07/13 03:46:05;;;;;;;5.20;4.00;;;15.30;99.90;;;14.76;100.00;101075.13;4185160;28;20056;-72
2021/07/13 03:48:11;;;;;;;6.78;4.20;;;15.30;99.90;;;14.76;100.00;101075.94;4168685;28;20056;-72
2021/07/13 03:50:13;;;;;;;5.45;4.43;;;15.30;99.90;;;14.71;100.00;101082.78;4185225;28;20025;-72
2021/07/13 03:52:14;;;;;;;8.85;4.30;;;15.30;99.90;;;14.66;100.00;101083.34;4203111;28;20103;-72
2021/07/13 03:54:18;;;;;;;8.13;4.68;;;15.20;99.90;;;14.66;100.00;101079.84;4203068;28;20031;-72
2021/07/13 03:56:19;;;;;;;6.22;4.40;;;15.20;99.90;;;14.66;100.00;101085.16;4185596;28;20033;-72
2021/07/13 03:58:20;;;;;;;6.10;3.78;;;15.20;99.90;;;14.75;100.00;101084.94;4185108;28;20419;-72
2021/07/13 04:00:27;;;;;;;4.30;3.90;;;15.10;99.90;;;14.72;100.00;101087.13;4185254;28;20029;-72
2021/07/13 04:02:28;;;;;;;5.15;4.18;;;15.10;99.90;;;14.70;100.00;101086.44;4202997;28;20054;-72
2021/07/13 04:04:29;;;;;;;8.95;4.20;;;15.10;99.90;;;14.70;100.00;101086.44;4184949;28;20107;-72
2021/07/13 04:06:30;;;;;;;6.30;4.72;;;15.20;99.90;;;14.86;100.00;101094.31;4202696;28;20037;-72
2021/07/13 04:08:31;;;;;;;5.15;4.32;;;15.20;99.90;;;14.90;100.00;101093.00;4185073;28;20025;-72
2021/07/13 04:10:32;;;;;;;8.52;4.20;;;15.20;99.90;;;14.91;100.00;101090.13;4202767;28;20055;-72
2021/07/13 04:12:33;;;;;;;8.10;4.20;;;15.20;99.90;;;14.89;100.00;101094.81;4184853;28;20458;-72
2021/07/13 04:14:35;;;;;;;9.98;4.65;;;15.30;99.90;;;14.73;100.00;101083.44;4184879;28;20406;-72
2021/07/13 04:16:36;;;;;;;8.50;4.78;;;15.30;99.90;;;14.79;100.00;101088.06;4184498;28;20021;-72
2021/07/13 04:18:38;;;;;;;9.18;5.13;;;15.30;99.90;;;14.80;100.00;101089.72;4202563;28;20028;-72
2021/07/13 04:20:39;;;;;;;5.40;4.45;;;15.30;99.90;;;14.95;100.00;101095.94;4184767;28;20090;-72
2021/07/13 04:22:43;;;;;;;4.57;3.78;;;15.30;99.90;;;14.95;100.00;101088.78;4202366;28;20024;-72
2021/07/13 04:24:44;;;;;;;8.07;4.93;;;15.30;99.90;;;14.83;100.00;101084.88;4202339;28;20511;-72
2021/07/13 04:26:45;;;;;;;8.30;4.70;;;15.30;99.90;;;14.84;100.00;101093.69;4202408;28;20043;-72
2021/07/13 04:28:46;;;;;;;5.55;4.60;;;15.30;99.90;;;14.72;100.00;101085.28;4184637;28;20021;-72
2021/07/13 04:30:47;;;;;;;9.02;4.88;;;15.30;99.90;;;14.81;100.00;101091.38;4184256;28;20594;-72
2021/07/13 04:32:48;;;;;;;6.70;4.40;;;15.20;99.90;;;14.87;100.00;101096.00;4184710;28;20483;-72
2021/07/13 04:34:49;;;;;;;9.23;4.80;;;15.30;99.90;;;14.90;100.00;101103.63;4184567;28;20037;-72
2021/07/13 04:36:50;;;;;;;7.55;4.35;;;15.30;99.90;;;14.90;100.00;101101.75;4184563;28;20032;-72
2021/07/13 04:38:51;;;;;;;8.77;4.97;;;15.30;99.90;;;14.91;100.00;101100.75;4202307;28;20051;-72
2021/07/13 04:40:53;;;;;;;8.95;4.60;;;15.40;99.90;;;14.95;100.00;101111.88;4202037;28;20059;-72
2021/07/13 04:42:54;;;;;;;6.47;5.22;;;15.40;99.90;;;14.96;100.00;101100.25;4184485;28;20037;-72
2021/07/13 04:44:55;;;;;;;8.18;5.00;;;15.30;99.90;;;15.00;100.00;101106.03;4184228;28;20036;-72
2021/07/13 04:46:56;;;;;;;8.50;4.78;;;15.50;99.90;;;15.02;100.00;101104.88;4183928;28;20025;-72
2021/07/13 04:48:58;;;;;;;9.05;5.07;;;15.40;99.90;;;15.01;100.00;101105.88;4184478;28;20020;-72
2021/07/13 04:50:59;;;;;;;7.57;4.82;;;15.40;99.90;;;14.99;100.00;101102.56;4184041;28;20107;-72
2021/07/13 04:53:00;;;;;;;7.30;5.18;;;15.40;99.90;;;15.14;100.00;101102.63;4184164;28;20028;-72
2021/07/13 04:55:01;;;;;;;6.82;4.85;;;15.50;99.90;;;15.14;100.00;101098.13;4183589;28;20040;-72
2021/07/13 04:57:03;;;;;;;9.15;5.28;;;15.50;99.90;;;15.12;100.00;101105.44;4201787;28;20029;-72
2021/07/13 04:59:04;;;;;;;6.15;5.10;;;15.50;99.90;;;15.09;100.00;101104.97;4201915;28;20059;-72
2021/07/13 05:01:05;;;;;;;11.55;5.18;;;15.60;99.90;;;15.17;100.00;101110.25;4201705;28;20064;-72
2021/07/13 05:03:06;;;;;;;24.27;6.15;;;15.60;99.90;;;15.12;100.00;101104.63;4201472;28;20028;-72
2021/07/13 05:05:10;;;;;;;8.50;5.80;;;15.60;99.90;;;15.13;100.00;101104.44;4167207;28;20029;-72
2021/07/13 05:07:11;;;;;;;9.50;5.47;;;15.60;99.90;;;15.08;100.00;101098.84;4201899;28;20031;-72
2021/07/13 05:09:13;;;;;;;6.72;5.00;;;15.60;99.90;;;15.07;100.00;101106.97;4201793;28;20021;-73
2021/07/13 05:11:14;;;;;;;5.93;5.28;;;15.60;99.90;;;15.18;100.00;101104.75;4184024;28;20088;-72
2021/07/13 05:13:15;;;;;;;7.28;5.45;;;15.70;99.90;;;15.06;100.00;101111.47;4207508;28;20016;-72
2021/07/13 05:15:17;;;;;;;9.18;5.80;;;15.70;99.90;;;15.07;100.00;101109.63;4190480;28;20522;-72
2021/07/13 05:17:18;;;;;;;6.05;4.78;;;15.60;99.90;;;15.12;100.00;101104.63;4187783;28;20078;-72
2021/07/13 05:19:19;;;;;;;7.68;5.78;;;15.60;99.90;;;15.16;100.00;101109.41;4183783;28;20032;-72
2021/07/13 05:21:19;;;;;;;7.80;5.43;;;15.70;99.90;;;15.11;100.00;101114.44;4201709;28;20025;-72
2021/07/13 05:23:20;;;;;;;9.13;5.30;;;15.70;99.90;;;15.14;100.00;101115.91;4183227;28;20032;-72
2021/07/13 05:25:21;;;;;;;8.93;5.70;;;15.70;99.90;;;15.09;100.00;101105.78;4187363;28;20021;-72
2021/07/13 05:27:23;;;;;;;10.65;6.15;;;15.70;99.90;;;15.14;100.00;101116.72;4201439;28;20028;-72
2021/07/13 05:29:25;;;;;;;10.10;6.00;;;15.70;99.90;;;15.21;100.00;101120.34;4201628;28;20067;-72
2021/07/13 05:31:25;;;;;;;8.35;5.97;;;15.70;99.90;;;15.15;100.00;101131.66;4183486;28;20119;-72
2021/07/13 05:33:26;;;;;;;8.57;6.03;;;15.70;99.90;;;15.24;100.00;101138.59;4183664;28;20107;-72
2021/07/13 05:35:27;;;;;;;7.28;5.28;;;15.80;99.90;;;15.18;100.00;101133.97;4183631;28;20037;-72
2021/07/13 05:37:28;;;;;;;6.90;5.57;;;15.80;99.90;;;15.21;100.00;101136.28;4201553;28;20036;-72
2021/07/13 05:39:29;;;;;;;8.68;5.80;;;15.80;99.90;;;15.22;100.00;101132.63;4183372;28;20484;-72
2021/07/13 05:41:30;;;;;;;10.82;5.45;;;15.80;99.90;;;15.07;100.00;101144.19;4195013;28;20077;-72
2021/07/13 05:43:32;;;;;;;12.90;6.13;;;15.80;99.90;;;15.02;100.00;101142.06;4183460;28;20033;-73
2021/07/13 05:45:33;;;;;;;7.45;5.35;;;15.80;99.90;;;15.05;100.00;101152.34;4201228;28;20054;-72
2021/07/13 05:47:34;;;;;;;9.50;6.05;;;15.70;99.90;;;15.08;100.00;101152.00;4183582;28;20032;-72
2021/07/13 05:49:35;;;;;;;11.35;6.45;;;15.70;99.90;;;15.09;100.00;101153.63;4201310;28;20029;-72
2021/07/13 05:51:36;;;;;;;9.68;5.93;;;15.80;99.90;;;15.13;100.00;101154.94;4201360;28;20085;-72
2021/07/13 05:53:37;;;;;;;8.73;5.72;;;15.80;99.90;;;15.14;100.00;101159.22;4183626;28;20064;-72
2021/07/13 05:55:38;;;;;;;8.40;5.40;;;15.80;99.90;;;15.22;100.00;101163.69;4183654;28;20051;-72
2021/07/13 05:57:39;;;;;;;8.15;5.72;;;15.80;99.90;;;15.19;100.00;101154.25;4201424;28;20074;-72
2021/07/13 05:59:40;;;;;;;7.13;5.95;;;15.80;99.90;;;15.24;100.00;101154.53;4201299;28;20430;-72
2021/07/13 06:01:41;;;;;;;8.15;5.53;;;15.90;99.90;;;15.29;100.00;101165.44;4166717;28;20033;-72
2021/07/13 06:03:42;;;;;;;8.55;5.72;;;15.90;99.90;;;15.25;100.00;101158.84;4201207;28;20032;-72
2021/07/13 06:05:44;;;;;;;9.10;6.05;;;15.90;99.90;;;15.29;100.00;101160.13;4201066;28;20276;-72
2021/07/13 06:07:47;;;;;;;11.82;6.45;;;15.90;99.90;;;15.38;100.00;101160.94;4203677;28;20045;-72
2021/07/13 06:09:48;;;;;;;8.98;5.28;;;15.90;99.90;;;15.43;100.00;101161.22;4186673;28;20105;-72
2021/07/13 06:11:49;;;;;;;8.30;5.78;;;16.00;99.90;;;15.46;100.00;101151.06;4170156;28;20088;-72
2021/07/13 06:13:50;;;;;;;8.48;6.55;;;16.10;99.90;;;15.42;100.00;101149.75;4186662;28;20431;-72
2021/07/13 06:15:51;;;;;;;11.23;5.88;;;16.20;99.90;;;15.49;100.00;101161.38;4169730;28;20033;-72
2021/07/13 06:17:52;;;;;;;12.77;5.65;;;16.20;99.90;;;15.56;100.00;101166.00;4186529;28;20031;-72
2021/07/13 06:19:53;;;;;;;6.07;5.25;;;16.20;99.90;;;15.52;100.00;101162.00;4204371;28;20060;-72
2021/07/13 06:21:54;;;;;;;9.65;5.75;;;16.20;99.90;;;15.65;100.00;101167.56;4204239;28;20063;-72
2021/07/13 06:23:56;;;;;;;7.53;5.30;;;16.20;99.90;;;15.64;100.00;101169.41;4204130;28;20028;-72
2021/07/13 06:25:57;;;;;;;8.93;5.93;;;16.30;99.90;;;15.68;100.00;101168.03;4186046;28;20088;-72
2021/07/13 06:27:58;;;;;;;10.60;5.70;;;16.30;99.90;;;15.73;100.00;101171.00;4186636;28;20107;-72
2021/07/13 06:29:59;;;;;;;8.45;5.65;;;16.30;99.90;;;15.71;100.00;101177.50;4202990;28;20036;-72
2021/07/13 06:32:00;;;;;;;7.32;5.82;;;16.40;99.90;;;15.72;100.00;101181.78;4204021;28;20082;-71
2021/07/13 06:34:00;;;;;;;9.40;5.60;;;16.30;99.90;;;15.68;100.00;101177.84;4186267;28;20025;-72
2021/07/13 06:36:01;;;;;;;8.60;5.60;;;16.30;99.90;;;15.82;100.00;101191.19;4186439;28;20497;-72
2021/07/13 06:38:03;;;;;;;10.18;6.07;;;16.40;99.90;;;15.79;100.00;101180.91;4186323;28;20488;-72
2021/07/13 06:40:06;;;;;;;8.10;5.68;;;16.50;99.90;;;15.84;100.00;101175.03;4186108;28;20056;-72
2021/07/13 06:42:07;;;;;;;8.82;5.45;;;16.50;99.90;;;15.91;100.00;101187.47;4187358;28;20040;-72
2021/07/13 06:44:10;;;;;;;5.45;4.78;;;16.50;99.90;;;15.93;100.00;101196.09;4187464;28;20396;-72
2021/07/13 06:46:11;;;;;;;6.90;5.00;;;16.50;99.90;;;15.84;100.00;101202.47;4187160;28;20029;-72
2021/07/13 06:48:12;;;;;;;8.07;5.60;;;16.60;99.90;;;15.82;100.00;101203.66;4186406;28;20021;-72
2021/07/13 06:50:13;;;;;;;8.40;5.90;;;16.60;99.90;;;15.91;100.00;101208.75;4185955;28;20028;-72
2021/07/13 06:52:14;;;;;;;8.90;6.40;;;16.60;99.90;;;15.97;100.00;101205.38;4186206;28;20029;-72
2021/07/13 06:54:15;;;;;;;9.30;5.82;;;16.70;99.90;;;16.04;100.00;101198.31;4186216;28;20021;-72
2021/07/13 06:56:16;;;;;;;9.13;6.15;;;16.70;99.90;;;15.93;100.00;101197.91;4186190;28;20080;-72
2021/07/13 06:58:17;;;;;;;12.52;6.18;;;16.70;99.90;;;16.02;100.00;101205.66;4185992;28;20036;-72
2021/07/13 07:00:18;;;;;;;8.15;5.93;;;16.80;99.90;;;15.92;100.00;101201.56;4185931;28;20094;-72
2021/07/13 07:02:19;;;;;;;7.85;5.63;;;16.90;99.90;;;15.94;100.00;101202.25;4185772;28;20033;-72
2021/07/13 07:04:20;;;;;;;8.25;5.55;;;16.80;99.90;;;15.96;100.00;101201.06;4169296;28;20029;-72
2021/07/13 07:06:21;;;;;;;9.25;6.13;;;16.90;99.90;;;16.12;100.00;101201.91;4186927;28;20752;-72
2021/07/13 07:08:22;;;;;;;9.48;4.88;;;16.90;99.90;;;16.16;100.00;101201.34;4186120;28;20424;-72
2021/07/13 07:10:23;;;;;;;10.57;5.60;;;17.00;99.90;;;16.16;100.00;101197.91;4187167;28;20080;-72
2021/07/13 07:12:24;;;;;;;8.15;5.35;;;17.10;99.90;;;16.21;100.00;101193.69;4186061;28;20036;-72
2021/07/13 07:14:25;;;;;;;5.97;5.15;;;17.10;99.90;;;16.41;100.00;101200.13;4186864;28;20025;-72
2021/07/13 07:16:26;;;;;;;6.32;5.22;;;17.20;99.90;;;16.51;100.00;101198.03;4186731;28;20029;-72
2021/07/13 07:18:27;;;;;;;9.38;5.10;;;17.30;99.90;;;16.56;100.00;101197.47;4185095;28;20381;-72
2021/07/13 07:20:29;;;;;;;8.57;5.22;;;17.40;99.90;;;16.62;99.33;101188.75;4185634;28;20029;-72
2021/07/13 07:22:30;;;;;;;7.75;5.20;;;17.50;99.90;;;16.72;98.59;101185.81;4185677;28;20028;-71
2021/07/13 07:24:31;;;;;;;6.10;4.45;;;17.60;99.90;;;16.82;98.91;101191.66;4185228;28;20028;-75
2021/07/13 07:26:32;;;;;;;6.05;4.32;;;17.70;99.90;;;16.88;98.64;101188.25;4218685;28;20107;-75
2021/07/13 07:28:33;;;;;;;6.90;4.90;;;17.80;99.90;;;16.91;98.27;101207.38;4185330;28;20025;-75
2021/07/13 07:30:34;;;;;;;11.38;5.88;;;17.90;99.90;;;16.82;98.07;101200.50;4186566;28;20017;-74
2021/07/13 07:32:37;;;;;;;7.35;4.80;;;17.90;99.90;;;16.96;98.78;101196.19;4185432;28;20037;-75
2021/07/13 07:34:37;;;;;;;6.07;5.03;;;17.90;99.90;;;17.02;98.12;101203.44;4186713;28;20044;-75
2021/07/13 07:36:38;;;;;;;6.95;4.45;;;18.00;99.90;;;16.92;98.07;101192.22;4168770;28;20033;-75
2021/07/13 07:38:40;;;;;;;5.43;4.30;;;18.00;99.90;;;17.12;97.69;101203.94;4185290;28;20503;-75
2021/07/13 07:40:41;;;;;;;6.07;4.60;;;18.00;99.90;;;17.23;95.88;101197.31;4194742;28;20040;-75
2021/07/13 07:42:42;;;;;;;6.28;4.20;;;18.20;99.90;;;17.21;95.89;101196.66;4203057;28;20364;-75
2021/07/13 07:44:43;;;;;;;6.50;4.70;;;18.30;99.90;;;17.15;95.08;101203.56;4185259;28;20075;-75
2021/07/13 07:46:44;;;;;;;5.15;4.38;;;18.40;99.90;;;17.32;95.78;101205.03;4202669;28;20016;-75
2021/07/13 07:48:44;;;;;;;6.57;4.43;;;18.50;99.90;;;17.29;94.57;101192.06;4185374;28;20062;-75
2021/07/13 07:50:45;;;;;;;7.95;4.65;;;18.50;99.90;;;17.33;95.26;101195.97;4185222;28;20025;-75
2021/07/13 07:52:47;;;;;;;8.32;4.57;;;18.50;99.90;;;17.39;95.91;101197.91;4202940;28;20396;-74
2021/07/13 07:54:47;;;;;;;6.57;3.53;;;18.50;99.90;;;17.48;96.18;101214.59;4185140;28;20048;-75
2021/07/13 07:56:49;;;;;;;8.52;4.78;;;18.50;99.90;;;17.32;94.80;101207.69;4185235;28;20029;-75
2021/07/13 07:58:50;;;;;;;7.63;3.92;;;18.50;99.90;;;17.38;95.79;101200.78;4202975;28;20021;-75
2021/07/13 08:00:51;;;;;;;7.20;4.78;;;18.50;99.90;;;17.43;96.13;101201.00;4202635;28;20029;-75
2021/07/13 08:02:52;;;;;;;8.50;3.85;;;18.60;99.90;;;17.49;95.22;101201.09;4168469;28;20028;-75
2021/07/13 08:04:53;;;;;;;5.97;4.25;;;18.60;99.90;;;17.26;95.37;101211.09;4185016;28;20025;-75
2021/07/13 08:06:55;;;;;;;9.25;4.40;;;18.60;99.90;;;17.44;94.51;101208.00;4184795;28;20075;-75
2021/07/13 08:08:55;;;;;;;6.55;4.70;;;18.60;99.90;;;17.41;94.84;101216.38;4185062;28;20029;-75
2021/07/13 08:10:56;;;;;;;7.00;3.58;;;18.70;99.90;;;17.40;92.80;101204.88;4202668;28;20039;-75
2021/07/13 08:12:57;;;;;;;4.25;3.78;;;18.70;99.90;;;17.30;93.86;101217.69;4202575;28;20035;-75
2021/07/13 08:14:59;;;;;;;5.78;3.50;;;18.70;99.90;;;17.33;93.48;101211.16;4185183;28;20029;-75
2021/07/13 08:16:59;;;;;;;4.97;3.42;;;18.60;99.90;;;17.35;94.60;101207.28;4184434;28;20037;-75
2021/07/13 08:19:00;;;;;;;5.38;3.92;;;18.50;99.90;;;17.28;94.11;101205.56;4202449;28;20510;-75
2021/07/13 08:21:01;;;;;;;8.35;3.70;;;18.40;99.90;;;17.06;94.67;101202.03;4184669;28;20102;-75
2021/07/13 08:23:02;;;;;;;4.97;3.85;;;18.30;99.90;;;17.13;94.24;101210.94;4184511;28;20562;-75
2021/07/13 08:25:05;;;;;;;6.15;3.92;;;18.20;99.90;;;17.26;93.33;101208.44;4202257;28;20032;-74
2021/07/13 08:27:08;;;;;;;6.72;3.50;;;18.20;99.90;;;17.21;94.28;101226.81;4184557;28;20021;-75
2021/07/13 08:29:09;;;;;;;5.10;3.38;;;18.10;99.90;;;17.08;93.71;101229.34;4202255;28;20099;-75